sensor_id;sensor_type;location;lat;lon;timestamp;temperature;humidity
39277;DHT22;63149;48.086;-1.606;2023-08-08T05:01:58;16.30;99.90
39277;DHT22;63149;48.086;-1.606;2023-08-08T05:04:25;16.20;99.90
39277;DHT22;63149;48.086;-1.606;2023-08-08T05:06:52;16.10;99.90
39277;DHT22;63149;48.086;-1.606;2023-08-08T05:09:19;16.10;99.90
39277;DHT22;63149;48.086;-1.606;2023-08-08T05:11:46;16.10;99.90
39277;DHT22;63149;48.086;-1.606;2023-08-08T05:14:13;16.10;99.90
39277;DHT22;63149;48.086;-1.606;2023-08-08T05:16:40;16.10;99.90
39277;DHT22;63149;48.086;-1.606;2023-08-08T05:19:08;16.00;99.90
39277;DHT22;63149;48.086;-1.606;2023-08-08T05:21:35;16.00;99.90
39277;DHT22;63149;48.086;-1.606;2023-08-08T05:24:02;16.00;99.90
39277;DHT22;63149;48.086;-1.606;2023-08-08T05:26:29;16.00;99.90
39277;DHT22;63149;48.086;-1.606;2023-08-08T05:28:56;16.00;99.90
39277;DHT22;63149;48.086;-1.606;2023-08-08T05:31:23;15.90;99.90
39277;DHT22;63149;48.086;-1.606;2023-08-08T05:33:50;15.90;99.90
39277;DHT22;63149;48.086;-1.606;2023-08-08T05:36:18;15.80;99.90
39277;DHT22;63149;48.086;-1.606;2023-08-08T05:38:45;15.90;99.90
39277;DHT22;63149;48.086;-1.606;2023-08-08T05:41:12;15.90;99.90
39277;DHT22;63149;48.086;-1.606;2023-08-08T05:43:39;15.80;99.90
39277;DHT22;63149;48.086;-1.606;2023-08-08T05:46:06;15.80;99.90
39277;DHT22;63149;48.086;-1.606;2023-08-08T05:48:33;15.90;99.90
39277;DHT22;63149;48.086;-1.606;2023-08-08T05:50:59;15.80;99.90
39277;DHT22;63149;48.086;-1.606;2023-08-08T05:53:29;15.80;99.90
39277;DHT22;63149;48.086;-1.606;2023-08-08T05:55:56;15.80;99.90
39277;DHT22;63149;48.086;-1.606;2023-08-08T05:58:23;15.80;99.90
39277;DHT22;63149;48.086;-1.606;2023-08-08T06:00:50;15.80;99.90
39277;DHT22;63149;48.086;-1.606;2023-08-08T06:03:17;15.80;99.90
39277;DHT22;63149;48.086;-1.606;2023-08-08T06:05:44;15.80;99.90
39277;DHT22;63149;48.086;-1.606;2023-08-08T06:08:11;15.80;99.90
39277;DHT22;63149;48.086;-1.606;2023-08-08T06:10:40;15.80;99.90
39277;DHT22;63149;48.086;-1.606;2023-08-08T06:13:07;15.80;99.90
39277;DHT22;63149;48.086;-1.606;2023-08-08T06:15:34;15.80;99.90
39277;DHT22;63149;48.086;-1.606;2023-08-08T06:18:01;15.80;99.90
39277;DHT22;63149;48.086;-1.606;2023-08-08T06:20:28;15.80;99.90
39277;DHT22;63149;48.086;-1.606;2023-08-08T06:22:55;15.80;99.90
39277;DHT22;63149;48.086;-1.606;2023-08-08T06:25:22;15.80;99.90
39277;DHT22;63149;48.086;-1.606;2023-08-08T06:27:50;15.80;99.90
39277;DHT22;63149;48.086;-1.606;2023-08-08T06:30:17;15.90;99.90
39277;DHT22;63149;48.086;-1.606;2023-08-08T06:32:44;15.90;99.90
39277;DHT22;63149;48.086;-1.606;2023-08-08T06:35:11;16.00;99.90
39277;DHT22;63149;48.086;-1.606;2023-08-08T06:37:38;16.00;99.90
39277;DHT22;63149;48.086;-1.606;2023-08-08T06:40:06;16.00;99.90
39277;DHT22;63149;48.086;-1.606;2023-08-08T06:42:34;16.00;99.90
39277;DHT22;63149;48.086;-1.606;2023-08-08T06:45:02;16.10;99.90
39277;DHT22;63149;48.086;-1.606;2023-08-08T06:47:29;16.10;99.90
39277;DHT22;63149;48.086;-1.606;2023-08-08T06:49:57;16.10;99.90
39277;DHT22;63149;48.086;-1.606;2023-08-08T06:52:23;16.20;99.90
39277;DHT22;63149;48.086;-1.606;2023-08-08T06:54:50;16.20;99.90
39277;DHT22;63149;48.086;-1.606;2023-08-08T06:57:17;16.20;99.90
39277;DHT22;63149;48.086;-1.606;2023-08-08T06:59:44;16.30;99.90
39277;DHT22;63149;48.086;-1.606;2023-08-08T07:02:17;16.30;99.90
39277;DHT22;63149;48.086;-1.606;2023-08-08T07:04:44;16.40;99.90
39277;DHT22;63149;48.086;-1.606;2023-08-08T07:07:11;16.40;99.90
39277;DHT22;63149;48.086;-1.606;2023-08-08T07:09:38;16.40;99.90
39277;DHT22;63149;48.086;-1.606;2023-08-08T07:12:05;16.50;99.90
39277;DHT22;63149;48.086;-1.606;2023-08-08T07:14:32;16.50;99.90
39277;DHT22;63149;48.086;-1.606;2023-08-08T07:16:59;16.50;99.90
39277;DHT22;63149;48.086;-1.606;2023-08-08T07:19:29;16.60;99.90
39277;DHT22;63149;48.086;-1.606;2023-08-08T07:21:56;16.60;99.90
39277;DHT22;63149;48.086;-1.606;2023-08-08T07:24:23;16.70;99.90
39277;DHT22;63149;48.086;-1.606;2023-08-08T07:26:54;16.70;99.90
39277;DHT22;63149;48.086;-1.606;2023-08-08T07:29:21;16.70;99.90
39277;DHT22;63149;48.086;-1.606;2023-08-08T07:31:48;16.80;99.90
39277;DHT22;63149;48.086;-1.606;2023-08-08T07:34:14;16.80;99.90
39277;DHT22;63149;48.086;-1.606;2023-08-08T07:36:43;16.90;99.90
39277;DHT22;63149;48.086;-1.606;2023-08-08T07:39:10;16.90;99.90
39277;DHT22;63149;48.086;-1.606;2023-08-08T07:41:37;16.90;99.90
39277;DHT22;63149;48.086;-1.606;2023-08-08T07:46:31;17.00;99.90
39277;DHT22;63149;48.086;-1.606;2023-08-08T07:48:58;17.00;99.90
39277;DHT22;63149;48.086;-1.606;2023-08-08T07:51:29;17.10;99.90
39277;DHT22;63149;48.086;-1.606;2023-08-08T07:53:57;17.10;99.90
39277;DHT22;63149;48.086;-1.606;2023-08-08T07:56:24;17.20;99.90
39277;DHT22;63149;48.086;-1.606;2023-08-08T07:58:51;17.20;99.90
39277;DHT22;63149;48.086;-1.606;2023-08-08T08:01:18;17.30;99.90
39277;DHT22;63149;48.086;-1.606;2023-08-08T08:03:45;17.30;99.90
39277;DHT22;63149;48.086;-1.606;2023-08-08T08:06:12;17.40;99.90
39277;DHT22;63149;48.086;-1.606;2023-08-08T08:08:39;17.50;99.90
39277;DHT22;63149;48.086;-1.606;2023-08-08T08:11:07;17.60;99.90
39277;DHT22;63149;48.086;-1.606;2023-08-08T08:13:34;17.60;99.90
39277;DHT22;63149;48.086;-1.606;2023-08-08T08:16:01;17.70;99.90
39277;DHT22;63149;48.086;-1.606;2023-08-08T08:18:28;17.80;99.90
39277;DHT22;63149;48.086;-1.606;2023-08-08T08:20:55;18.00;99.90
39277;DHT22;63149;48.086;-1.606;2023-08-08T08:23:22;18.10;99.90
39277;DHT22;63149;48.086;-1.606;2023-08-08T08:25:50;18.10;99.90
39277;DHT22;63149;48.086;-1.606;2023-08-08T08:28:18;18.20;99.90
39277;DHT22;63149;48.086;-1.606;2023-08-08T08:30:45;18.30;99.90
39277;DHT22;63149;48.086;-1.606;2023-08-08T08:33:12;18.50;99.90
39277;DHT22;63149;48.086;-1.606;2023-08-08T08:35:39;18.60;99.90
39277;DHT22;63149;48.086;-1.606;2023-08-08T08:38:06;18.70;99.90
39277;DHT22;63149;48.086;-1.606;2023-08-08T08:40:36;18.80;99.90
39277;DHT22;63149;48.086;-1.606;2023-08-08T08:43:06;19.00;99.90
39277;DHT22;63149;48.086;-1.606;2023-08-08T08:45:37;19.10;99.90
39277;DHT22;63149;48.086;-1.606;2023-08-08T08:48:07;19.30;99.90
39277;DHT22;63149;48.086;-1.606;2023-08-08T08:50:35;19.50;99.90
39277;DHT22;63149;48.086;-1.606;2023-08-08T08:53:02;19.70;99.90
39277;DHT22;63149;48.086;-1.606;2023-08-08T08:55:30;19.90;99.90
39277;DHT22;63149;48.086;-1.606;2023-08-08T08:57:57;20.00;99.90
39277;DHT22;63149;48.086;-1.606;2023-08-08T09:00:24;20.30;99.90
39277;DHT22;63149;48.086;-1.606;2023-08-08T09:02:53;20.50;99.90
39277;DHT22;63149;48.086;-1.606;2023-08-08T09:05:21;20.60;99.90
39277;DHT22;63149;48.086;-1.606;2023-08-08T09:07:48;20.80;99.90
39277;DHT22;63149;48.086;-1.606;2023-08-08T09:10:17;20.90;99.90
39277;DHT22;63149;48.086;-1.606;2023-08-08T09:12:44;21.00;99.90
39277;DHT22;63149;48.086;-1.606;2023-08-08T09:15:12;21.10;99.90
39277;DHT22;63149;48.086;-1.606;2023-08-08T09:17:40;21.40;99.90
39277;DHT22;63149;48.086;-1.606;2023-08-08T09:20:11;21.50;99.90
39277;DHT22;63149;48.086;-1.606;2023-08-08T09:22:38;21.60;99.90
39277;DHT22;63149;48.086;-1.606;2023-08-08T09:25:06;21.60;99.90
39277;DHT22;63149;48.086;-1.606;2023-08-08T09:27:33;21.80;99.90
39277;DHT22;63149;48.086;-1.606;2023-08-08T09:30:00;21.90;99.90
39277;DHT22;63149;48.086;-1.606;2023-08-08T09:32:29;22.00;99.90
39277;DHT22;63149;48.086;-1.606;2023-08-08T09:34:57;22.10;99.90
39277;DHT22;63149;48.086;-1.606;2023-08-08T09:37:25;22.40;99.90
39277;DHT22;63149;48.086;-1.606;2023-08-08T09:39:58;22.40;99.90
39277;DHT22;63149;48.086;-1.606;2023-08-08T09:42:26;22.60;99.90
39277;DHT22;63149;48.086;-1.606;2023-08-08T09:44:53;22.60;99.90
39277;DHT22;63149;48.086;-1.606;2023-08-08T09:47:21;22.80;99.90
39277;DHT22;63149;48.086;-1.606;2023-08-08T09:49:48;22.80;99.90
39277;DHT22;63149;48.086;-1.606;2023-08-08T09:52:16;23.00;99.90
39277;DHT22;63149;48.086;-1.606;2023-08-08T09:54:44;23.00;99.90
39277;DHT22;63149;48.086;-1.606;2023-08-08T09:57:12;23.20;99.90
39277;DHT22;63149;48.086;-1.606;2023-08-08T09:59:40;23.40;99.90
39277;DHT22;63149;48.086;-1.606;2023-08-08T10:02:09;23.60;99.90
39277;DHT22;63149;48.086;-1.606;2023-08-08T10:04:36;23.80;99.90
39277;DHT22;63149;48.086;-1.606;2023-08-08T10:07:04;24.00;99.90
39277;DHT22;63149;48.086;-1.606;2023-08-08T10:09:31;24.10;99.90
39277;DHT22;63149;48.086;-1.606;2023-08-08T10:12:00;24.20;99.90
39277;DHT22;63149;48.086;-1.606;2023-08-08T10:14:29;24.30;99.90
39277;DHT22;63149;48.086;-1.606;2023-08-08T10:16:57;24.40;99.90
39277;DHT22;63149;48.086;-1.606;2023-08-08T10:19:24;24.50;99.90
39277;DHT22;63149;48.086;-1.606;2023-08-08T10:21:57;24.60;99.90
39277;DHT22;63149;48.086;-1.606;2023-08-08T10:24:24;24.80;99.90
39277;DHT22;63149;48.086;-1.606;2023-08-08T10:26:52;24.90;99.90
39277;DHT22;63149;48.086;-1.606;2023-08-08T10:29:21;25.10;99.90
39277;DHT22;63149;48.086;-1.606;2023-08-08T10:31:58;25.40;99.90
39277;DHT22;63149;48.086;-1.606;2023-08-08T10:34:35;25.50;99.90
39277;DHT22;63149;48.086;-1.606;2023-08-08T10:37:04;25.70;99.90
39277;DHT22;63149;48.086;-1.606;2023-08-08T10:39:31;25.80;99.90
39277;DHT22;63149;48.086;-1.606;2023-08-08T10:42:03;26.00;99.90
39277;DHT22;63149;48.086;-1.606;2023-08-08T10:44:31;26.00;99.90
39277;DHT22;63149;48.086;-1.606;2023-08-08T10:47:00;26.10;99.90
39277;DHT22;63149;48.086;-1.606;2023-08-08T10:49:27;26.20;99.90
39277;DHT22;63149;48.086;-1.606;2023-08-08T10:51:54;26.40;99.90
39277;DHT22;63149;48.086;-1.606;2023-08-08T10:54:28;26.40;99.90
39277;DHT22;63149;48.086;-1.606;2023-08-08T10:56:59;26.60;99.90
39277;DHT22;63149;48.086;-1.606;2023-08-08T10:59:27;26.70;99.90
39277;DHT22;63149;48.086;-1.606;2023-08-08T11:01:59;26.80;99.90
39277;DHT22;63149;48.086;-1.606;2023-08-08T11:04:28;26.90;99.90
39277;DHT22;63149;48.086;-1.606;2023-08-08T11:06:58;26.90;99.90
39277;DHT22;63149;48.086;-1.606;2023-08-08T11:09:25;27.00;99.90
39277;DHT22;63149;48.086;-1.606;2023-08-08T11:11:53;27.10;99.90
39277;DHT22;63149;48.086;-1.606;2023-08-08T11:14:21;27.30;99.90
39277;DHT22;63149;48.086;-1.606;2023-08-08T11:16:50;27.40;99.90
39277;DHT22;63149;48.086;-1.606;2023-08-08T11:19:19;27.50;99.90
39277;DHT22;63149;48.086;-1.606;2023-08-08T11:21:46;27.50;99.90
39277;DHT22;63149;48.086;-1.606;2023-08-08T11:24:14;27.70;99.90
39277;DHT22;63149;48.086;-1.606;2023-08-08T11:26:43;27.80;99.90
39277;DHT22;63149;48.086;-1.606;2023-08-08T11:29:11;27.70;99.90
39277;DHT22;63149;48.086;-1.606;2023-08-08T11:31:38;27.90;99.90
39277;DHT22;63149;48.086;-1.606;2023-08-08T11:34:05;28.00;99.90
39277;DHT22;63149;48.086;-1.606;2023-08-08T11:36:34;28.00;99.90
39277;DHT22;63149;48.086;-1.606;2023-08-08T11:39:02;28.00;99.90
39277;DHT22;63149;48.086;-1.606;2023-08-08T11:41:34;28.20;99.90
39277;DHT22;63149;48.086;-1.606;2023-08-08T11:44:02;28.00;99.90
39277;DHT22;63149;48.086;-1.606;2023-08-08T11:46:29;28.10;99.90
39277;DHT22;63149;48.086;-1.606;2023-08-08T11:49:02;28.10;99.90
39277;DHT22;63149;48.086;-1.606;2023-08-08T11:51:33;28.20;99.90
39277;DHT22;63149;48.086;-1.606;2023-08-08T11:54:02;28.30;99.90
39277;DHT22;63149;48.086;-1.606;2023-08-08T11:56:32;28.30;99.90
39277;DHT22;63149;48.086;-1.606;2023-08-08T11:58:59;28.30;99.90
39277;DHT22;63149;48.086;-1.606;2023-08-08T12:01:27;28.40;99.90
39277;DHT22;63149;48.086;-1.606;2023-08-08T12:03:54;28.50;99.90
39277;DHT22;63149;48.086;-1.606;2023-08-08T12:06:21;28.60;99.90
39277;DHT22;63149;48.086;-1.606;2023-08-08T12:08:50;28.60;99.90
39277;DHT22;63149;48.086;-1.606;2023-08-08T12:11:17;28.60;99.90
39277;DHT22;63149;48.086;-1.606;2023-08-08T12:13:44;28.50;99.90
39277;DHT22;63149;48.086;-1.606;2023-08-08T12:16:13;28.40;99.90
39277;DHT22;63149;48.086;-1.606;2023-08-08T12:18:40;28.40;99.90
39277;DHT22;63149;48.086;-1.606;2023-08-08T12:21:08;28.40;99.90
39277;DHT22;63149;48.086;-1.606;2023-08-08T12:23:36;28.40;99.90
39277;DHT22;63149;48.086;-1.606;2023-08-08T12:26:06;28.50;99.90
39277;DHT22;63149;48.086;-1.606;2023-08-08T12:28:34;28.50;99.90
39277;DHT22;63149;48.086;-1.606;2023-08-08T12:31:01;28.60;99.90
39277;DHT22;63149;48.086;-1.606;2023-08-08T12:33:28;28.70;99.90
39277;DHT22;63149;48.086;-1.606;2023-08-08T12:35:56;28.80;99.90
39277;DHT22;63149;48.086;-1.606;2023-08-08T12:38:23;28.80;99.90
39277;DHT22;63149;48.086;-1.606;2023-08-08T12:40:50;28.70;99.90
39277;DHT22;63149;48.086;-1.606;2023-08-08T12:43:18;28.80;99.90
39277;DHT22;63149;48.086;-1.606;2023-08-08T12:45:46;28.80;99.90
39277;DHT22;63149;48.086;-1.606;2023-08-08T12:48:13;28.80;99.90
39277;DHT22;63149;48.086;-1.606;2023-08-08T12:50:40;28.80;99.90
39277;DHT22;63149;48.086;-1.606;2023-08-08T12:53:07;28.70;99.90
39277;DHT22;63149;48.086;-1.606;2023-08-08T12:55:34;28.70;99.90
39277;DHT22;63149;48.086;-1.606;2023-08-08T12:58:03;28.60;99.90
39277;DHT22;63149;48.086;-1.606;2023-08-08T13:00:32;28.40;99.90
39277;DHT22;63149;48.086;-1.606;2023-08-08T13:02:58;28.30;99.90
39277;DHT22;63149;48.086;-1.606;2023-08-08T13:05:25;28.20;99.90
39277;DHT22;63149;48.086;-1.606;2023-08-08T13:07:52;28.00;99.90
39277;DHT22;63149;48.086;-1.606;2023-08-08T13:10:19;27.80;99.90
39277;DHT22;63149;48.086;-1.606;2023-08-08T13:12:46;27.60;99.90
39277;DHT22;63149;48.086;-1.606;2023-08-08T13:15:13;27.40;99.90
39277;DHT22;63149;48.086;-1.606;2023-08-08T13:17:42;27.20;99.90
39277;DHT22;63149;48.086;-1.606;2023-08-08T13:20:10;27.20;99.90
39277;DHT22;63149;48.086;-1.606;2023-08-08T13:22:37;27.10;99.90
39277;DHT22;63149;48.086;-1.606;2023-08-08T13:25:06;27.00;99.90
39277;DHT22;63149;48.086;-1.606;2023-08-08T13:27:33;26.80;99.90
39277;DHT22;63149;48.086;-1.606;2023-08-08T13:30:00;26.80;99.90
39277;DHT22;63149;48.086;-1.606;2023-08-08T13:32:27;26.60;99.90
39277;DHT22;63149;48.086;-1.606;2023-08-08T13:34:56;26.50;99.90
39277;DHT22;63149;48.086;-1.606;2023-08-08T13:37:23;26.50;99.90
39277;DHT22;63149;48.086;-1.606;2023-08-08T13:39:50;26.30;99.90
39277;DHT22;63149;48.086;-1.606;2023-08-08T13:42:17;26.20;99.90
39277;DHT22;63149;48.086;-1.606;2023-08-08T13:44:43;26.10;99.90
39277;DHT22;63149;48.086;-1.606;2023-08-08T13:47:10;26.00;99.90
39277;DHT22;63149;48.086;-1.606;2023-08-08T13:49:37;26.00;99.90
39277;DHT22;63149;48.086;-1.606;2023-08-08T13:52:06;25.80;99.90
39277;DHT22;63149;48.086;-1.606;2023-08-08T13:54:33;25.90;99.90
39277;DHT22;63149;48.086;-1.606;2023-08-08T13:57:00;25.80;99.90
39277;DHT22;63149;48.086;-1.606;2023-08-08T13:59:27;25.80;99.90
39277;DHT22;63149;48.086;-1.606;2023-08-08T14:01:54;25.80;99.90
39277;DHT22;63149;48.086;-1.606;2023-08-08T14:04:21;25.70;99.90
39277;DHT22;63149;48.086;-1.606;2023-08-08T14:06:48;25.70;99.90
39277;DHT22;63149;48.086;-1.606;2023-08-08T14:09:16;25.60;99.90
39277;DHT22;63149;48.086;-1.606;2023-08-08T14:11:43;25.60;99.90
39277;DHT22;63149;48.086;-1.606;2023-08-08T14:14:10;25.50;99.90
39277;DHT22;63149;48.086;-1.606;2023-08-08T14:16:37;25.50;99.90
39277;DHT22;63149;48.086;-1.606;2023-08-08T14:19:04;25.40;99.90
39277;DHT22;63149;48.086;-1.606;2023-08-08T14:21:31;25.30;99.90
39277;DHT22;63149;48.086;-1.606;2023-08-08T14:23:58;25.30;99.90
39277;DHT22;63149;48.086;-1.606;2023-08-08T14:26:26;25.20;99.90
39277;DHT22;63149;48.086;-1.606;2023-08-08T14:28:53;25.20;99.90
39277;DHT22;63149;48.086;-1.606;2023-08-08T14:31:20;25.20;99.90
39277;DHT22;63149;48.086;-1.606;2023-08-08T14:33:47;25.10;99.90
39277;DHT22;63149;48.086;-1.606;2023-08-08T14:36:14;25.00;99.90
39277;DHT22;63149;48.086;-1.606;2023-08-08T14:38:41;25.00;99.90
39277;DHT22;63149;48.086;-1.606;2023-08-08T14:41:07;25.00;99.90
39277;DHT22;63149;48.086;-1.606;2023-08-08T14:43:36;25.00;99.90
39277;DHT22;63149;48.086;-1.606;2023-08-08T14:46:03;25.00;99.90
39277;DHT22;63149;48.086;-1.606;2023-08-08T14:48:29;25.00;99.90
39277;DHT22;63149;48.086;-1.606;2023-08-08T14:50:57;25.00;99.90
39277;DHT22;63149;48.086;-1.606;2023-08-08T14:53:23;25.00;99.90
39277;DHT22;63149;48.086;-1.606;2023-08-08T14:55:50;25.00;99.90
39277;DHT22;63149;48.086;-1.606;2023-08-08T14:58:17;25.00;99.90
39277;DHT22;63149;48.086;-1.606;2023-08-08T15:00:46;25.00;99.90
39277;DHT22;63149;48.086;-1.606;2023-08-08T15:03:13;24.90;99.90
39277;DHT22;63149;48.086;-1.606;2023-08-08T15:05:40;25.00;99.90
39277;DHT22;63149;48.086;-1.606;2023-08-08T15:08:08;25.00;99.90
39277;DHT22;63149;48.086;-1.606;2023-08-08T15:10:36;25.00;99.90
39277;DHT22;63149;48.086;-1.606;2023-08-08T15:13:04;25.00;99.90
39277;DHT22;63149;48.086;-1.606;2023-08-08T15:15:31;24.90;99.90
39277;DHT22;63149;48.086;-1.606;2023-08-08T15:17:59;24.80;99.90
39277;DHT22;63149;48.086;-1.606;2023-08-08T15:20:26;24.80;99.90
39277;DHT22;63149;48.086;-1.606;2023-08-08T15:22:53;24.80;99.90
39277;DHT22;63149;48.086;-1.606;2023-08-08T15:25:20;24.80;99.90
39277;DHT22;63149;48.086;-1.606;2023-08-08T15:27:47;24.80;99.90
39277;DHT22;63149;48.086;-1.606;2023-08-08T15:30:14;24.90;99.90
39277;DHT22;63149;48.086;-1.606;2023-08-08T15:32:41;24.80;99.90
39277;DHT22;63149;48.086;-1.606;2023-08-08T15:35:09;24.80;99.90
39277;DHT22;63149;48.086;-1.606;2023-08-08T15:37:36;24.80;99.90
39277;DHT22;63149;48.086;-1.606;2023-08-08T15:40:04;24.90;99.90
39277;DHT22;63149;48.086;-1.606;2023-08-08T15:42:31;24.90;99.90
39277;DHT22;63149;48.086;-1.606;2023-08-08T15:44:58;24.90;99.90
39277;DHT22;63149;48.086;-1.606;2023-08-08T15:47:25;24.90;99.90
39277;DHT22;63149;48.086;-1.606;2023-08-08T15:49:52;24.90;99.90
39277;DHT22;63149;48.086;-1.606;2023-08-08T15:52:20;24.80;99.90
39277;DHT22;63149;48.086;-1.606;2023-08-08T15:54:47;24.80;99.90
39277;DHT22;63149;48.086;-1.606;2023-08-08T15:57:14;24.80;99.90
39277;DHT22;63149;48.086;-1.606;2023-08-08T15:59:41;24.80;99.90
39277;DHT22;63149;48.086;-1.606;2023-08-08T16:02:09;24.80;99.90
39277;DHT22;63149;48.086;-1.606;2023-08-08T16:04:36;24.80;99.90
39277;DHT22;63149;48.086;-1.606;2023-08-08T16:07:03;24.70;99.90
39277;DHT22;63149;48.086;-1.606;2023-08-08T16:09:31;24.70;99.90
39277;DHT22;63149;48.086;-1.606;2023-08-08T16:11:58;24.60;99.90
39277;DHT22;63149;48.086;-1.606;2023-08-08T16:14:25;24.60;99.90
39277;DHT22;63149;48.086;-1.606;2023-08-08T16:16:52;24.60;99.90
39277;DHT22;63149;48.086;-1.606;2023-08-08T16:19:19;24.60;99.90
39277;DHT22;63149;48.086;-1.606;2023-08-08T16:21:46;24.60;99.90
39277;DHT22;63149;48.086;-1.606;2023-08-08T16:24:13;24.50;99.90
39277;DHT22;63149;48.086;-1.606;2023-08-08T16:26:41;24.60;99.90
39277;DHT22;63149;48.086;-1.606;2023-08-08T16:29:08;24.50;99.90
39277;DHT22;63149;48.086;-1.606;2023-08-08T16:31:37;24.50;99.90
39277;DHT22;63149;48.086;-1.606;2023-08-08T16:34:04;24.50;99.90
39277;DHT22;63149;48.086;-1.606;2023-08-08T16:36:31;24.50;99.90
39277;DHT22;63149;48.086;-1.606;2023-08-08T16:38:58;24.50;99.90
39277;DHT22;63149;48.086;-1.606;2023-08-08T16:41:25;24.50;99.90
39277;DHT22;63149;48.086;-1.606;2023-08-08T16:44:02;24.50;99.90
39277;DHT22;63149;48.086;-1.606;2023-08-08T16:46:29;24.40;99.90
39277;DHT22;63149;48.086;-1.606;2023-08-08T16:48:56;24.40;99.90
39277;DHT22;63149;48.086;-1.606;2023-08-08T16:51:23;24.40;99.90
39277;DHT22;63149;48.086;-1.606;2023-08-08T16:53:50;24.40;99.90
39277;DHT22;63149;48.086;-1.606;2023-08-08T16:56:17;24.30;99.90
39277;DHT22;63149;48.086;-1.606;2023-08-08T16:58:44;24.40;99.90
39277;DHT22;63149;48.086;-1.606;2023-08-08T17:01:13;24.30;99.90
39277;DHT22;63149;48.086;-1.606;2023-08-08T17:03:40;24.30;99.90
39277;DHT22;63149;48.086;-1.606;2023-08-08T17:06:07;24.30;99.90
39277;DHT22;63149;48.086;-1.606;2023-08-08T17:08:34;24.30;99.90
39277;DHT22;63149;48.086;-1.606;2023-08-08T17:11:02;24.20;99.90
39277;DHT22;63149;48.086;-1.606;2023-08-08T17:13:29;24.20;99.90
39277;DHT22;63149;48.086;-1.606;2023-08-08T17:15:56;24.20;99.90
39277;DHT22;63149;48.086;-1.606;2023-08-08T17:18:24;24.20;99.90
39277;DHT22;63149;48.086;-1.606;2023-08-08T17:20:51;24.20;99.90
39277;DHT22;63149;48.086;-1.606;2023-08-08T17:23:18;24.10;99.90
39277;DHT22;63149;48.086;-1.606;2023-08-08T17:25:45;24.10;99.90
39277;DHT22;63149;48.086;-1.606;2023-08-08T17:28:12;24.00;99.90
39277;DHT22;63149;48.086;-1.606;2023-08-08T17:30:39;24.00;99.90
39277;DHT22;63149;48.086;-1.606;2023-08-08T17:33:06;24.00;99.90
39277;DHT22;63149;48.086;-1.606;2023-08-08T17:35:34;23.90;99.90
39277;DHT22;63149;48.086;-1.606;2023-08-08T17:38:01;23.90;99.90
39277;DHT22;63149;48.086;-1.606;2023-08-08T17:40:28;23.90;99.90
39277;DHT22;63149;48.086;-1.606;2023-08-08T17:42:56;23.90;99.90
39277;DHT22;63149;48.086;-1.606;2023-08-08T17:45:23;23.80;99.90
39277;DHT22;63149;48.086;-1.606;2023-08-08T17:47:50;23.80;99.90
39277;DHT22;63149;48.086;-1.606;2023-08-08T17:50:17;23.80;99.90
39277;DHT22;63149;48.086;-1.606;2023-08-08T17:52:46;23.80;99.90
39277;DHT22;63149;48.086;-1.606;2023-08-08T17:55:13;23.70;99.90
39277;DHT22;63149;48.086;-1.606;2023-08-08T17:57:40;23.70;99.90
39277;DHT22;63149;48.086;-1.606;2023-08-08T18:00:08;23.60;99.90
39277;DHT22;63149;48.086;-1.606;2023-08-08T18:02:36;23.60;99.90
39277;DHT22;63149;48.086;-1.606;2023-08-08T18:05:03;23.60;99.90
39277;DHT22;63149;48.086;-1.606;2023-08-08T18:07:30;23.60;99.90
39277;DHT22;63149;48.086;-1.606;2023-08-08T18:09:59;23.60;99.90
39277;DHT22;63149;48.086;-1.606;2023-08-08T18:12:26;23.50;99.90
39277;DHT22;63149;48.086;-1.606;2023-08-08T18:14:53;23.50;99.90
39277;DHT22;63149;48.086;-1.606;2023-08-08T18:17:20;23.50;99.90
39277;DHT22;63149;48.086;-1.606;2023-08-08T18:19:47;23.50;99.90
39277;DHT22;63149;48.086;-1.606;2023-08-08T18:22:14;23.40;99.90
39277;DHT22;63149;48.086;-1.606;2023-08-08T18:24:41;23.40;99.90
39277;DHT22;63149;48.086;-1.606;2023-08-08T18:27:10;23.30;99.90
39277;DHT22;63149;48.086;-1.606;2023-08-08T18:29:37;23.30;99.90
39277;DHT22;63149;48.086;-1.606;2023-08-08T18:32:04;23.30;99.90
39277;DHT22;63149;48.086;-1.606;2023-08-08T18:34:31;23.20;99.90
39277;DHT22;63149;48.086;-1.606;2023-08-08T18:36:58;23.20;99.90
39277;DHT22;63149;48.086;-1.606;2023-08-08T18:39:25;23.10;99.90
39277;DHT22;63149;48.086;-1.606;2023-08-08T18:41:52;23.10;99.90
39277;DHT22;63149;48.086;-1.606;2023-08-08T18:44:20;23.10;99.90
39277;DHT22;63149;48.086;-1.606;2023-08-08T18:46:47;23.10;99.90
39277;DHT22;63149;48.086;-1.606;2023-08-08T18:49:14;23.10;99.90
39277;DHT22;63149;48.086;-1.606;2023-08-08T18:51:41;23.00;99.90
39277;DHT22;63149;48.086;-1.606;2023-08-08T18:54:08;23.00;99.90
39277;DHT22;63149;48.086;-1.606;2023-08-08T18:56:35;22.90;99.90
39277;DHT22;63149;48.086;-1.606;2023-08-08T18:59:04;22.90;99.90
39277;DHT22;63149;48.086;-1.606;2023-08-08T19:01:33;22.90;99.90
39277;DHT22;63149;48.086;-1.606;2023-08-08T19:04:00;22.90;99.90
39277;DHT22;63149;48.086;-1.606;2023-08-08T19:06:27;22.80;99.90
39277;DHT22;63149;48.086;-1.606;2023-08-08T19:08:54;22.80;99.90
39277;DHT22;63149;48.086;-1.606;2023-08-08T19:11:21;22.70;99.90
39277;DHT22;63149;48.086;-1.606;2023-08-08T19:13:48;22.70;99.90
39277;DHT22;63149;48.086;-1.606;2023-08-08T19:16:15;22.60;99.90
39277;DHT22;63149;48.086;-1.606;2023-08-08T19:18:44;22.60;99.90
39277;DHT22;63149;48.086;-1.606;2023-08-08T19:21:11;22.60;99.90
39277;DHT22;63149;48.086;-1.606;2023-08-08T19:23:38;22.50;99.90
39277;DHT22;63149;48.086;-1.606;2023-08-08T19:26:06;22.40;99.90
39277;DHT22;63149;48.086;-1.606;2023-08-08T19:28:33;22.40;99.90
39277;DHT22;63149;48.086;-1.606;2023-08-08T19:31:00;22.30;99.90
39277;DHT22;63149;48.086;-1.606;2023-08-08T19:33:27;22.30;99.90
39277;DHT22;63149;48.086;-1.606;2023-08-08T19:35:56;22.20;99.90
39277;DHT22;63149;48.086;-1.606;2023-08-08T19:38:25;22.20;99.90
39277;DHT22;63149;48.086;-1.606;2023-08-08T19:40:52;22.10;99.90
39277;DHT22;63149;48.086;-1.606;2023-08-08T19:43:19;22.10;99.90
39277;DHT22;63149;48.086;-1.606;2023-08-08T19:45:46;22.00;99.90
39277;DHT22;63149;48.086;-1.606;2023-08-08T19:48:13;22.00;99.90
39277;DHT22;63149;48.086;-1.606;2023-08-08T19:50:40;22.00;99.90
39277;DHT22;63149;48.086;-1.606;2023-08-08T19:53:09;21.90;99.90
39277;DHT22;63149;48.086;-1.606;2023-08-08T19:55:36;21.90;99.90
39277;DHT22;63149;48.086;-1.606;2023-08-08T19:58:04;21.90;99.90
39277;DHT22;63149;48.086;-1.606;2023-08-08T20:00:31;21.80;99.90
39277;DHT22;63149;48.086;-1.606;2023-08-08T20:02:58;21.80;99.90
39277;DHT22;63149;48.086;-1.606;2023-08-08T20:05:25;21.80;99.90
39277;DHT22;63149;48.086;-1.606;2023-08-08T20:07:52;21.80;99.90
39277;DHT22;63149;48.086;-1.606;2023-08-08T20:10:21;21.70;99.90
39277;DHT22;63149;48.086;-1.606;2023-08-08T20:12:48;21.70;99.90
39277;DHT22;63149;48.086;-1.606;2023-08-08T20:15:15;21.60;99.90
39277;DHT22;63149;48.086;-1.606;2023-08-08T20:17:42;21.60;99.90
39277;DHT22;63149;48.086;-1.606;2023-08-08T20:20:10;21.60;99.90